Delta Virtual Airport Information Service

Mexico City International Airport

ICAO: MMMX Country: Mexico
Latitude: 19.4363 Longitude: -99.072
Latest Arrival : DAL588 (KATL-MMMX) Latest Departure : AMX100 (1) (MMMX-MMGL)


WX CaptureLIVE
Data provided by noaa.gov | Fetched at 01:10:43

METAR : MMMX 120449Z 30006KT 7SM BKN020 BKN080 OVC200 17/12 A3038 NOSIG RMK 8/463 HZY

TAF : MMMX 120444Z 1206/1312 02005KT P6SM SCT020 BKN200 TX24/1220Z TN13/1212Z FM121600 03010KT P6SM SCT020 BKN010 FM122100 03015KT P6SM BKN015CB OVC080 TEMPO 1222/1302 2SM TSRA FM130200 03008KT 5SM RA BKN020 OVC080


Runway Data for MMMX
Data provided by openaviationdata.com

Runway ID Mag Var Hdg Length Elevation Surface ILS Freq ILS Id ILS Slope
05L 7 52° 12966 ft 7314 ft Asphalt -- -- --
05R 7 52° 12795 ft 7314 ft Asphalt 109.1 IMWX 3
23L 7 232° 12795 ft 7314 ft Asphalt 109.7 IMEX 3
23R 7 232° 12966 ft 7314 ft Asphalt -- -- --

Mexico City International Airport, Mexico
Use only for reference purposes



Not for navigational purposes.